createdAt,value
2019-03-23T00:01:15.507Z,13.00
2019-03-23T00:03:41.542Z,18.17
2019-03-23T00:06:07.576Z,14.23
2019-03-23T00:08:33.608Z,12.87
2019-03-23T00:10:59.651Z,19.47
2019-03-23T00:13:25.687Z,18.60
2019-03-23T00:15:51.696Z,18.30
2019-03-23T00:18:17.731Z,19.48
2019-03-23T00:20:43.735Z,16.50
2019-03-23T00:23:09.771Z,16.30
2019-03-23T00:25:35.787Z,20.67
2019-03-23T00:28:01.826Z,16.10
2019-03-23T00:30:27.944Z,15.93
2019-03-23T00:32:53.975Z,16.70
2019-03-23T00:35:19.983Z,16.20
2019-03-23T00:37:46.015Z,22.27
2019-03-23T00:40:12.638Z,14.30
2019-03-23T00:42:38.667Z,13.80
2019-03-23T00:45:06.683Z,15.77
2019-03-23T00:47:32.715Z,17.93
2019-03-23T00:49:58.727Z,18.10
2019-03-23T00:52:24.759Z,26.57
2019-03-23T00:54:50.774Z,13.83
2019-03-23T00:57:16.802Z,23.03
2019-03-23T00:59:42.884Z,21.03
2019-03-23T01:02:08.896Z,18.53
2019-03-23T01:04:34.932Z,15.97
2019-03-23T01:07:01.042Z,18.17
2019-03-23T01:09:27.084Z,21.47
2019-03-23T01:11:53.100Z,16.63
2019-03-23T01:14:19.132Z,14.23
2019-03-23T01:16:45.203Z,20.50
2019-03-23T01:19:11.284Z,16.73
2019-03-23T01:21:37.295Z,13.83
2019-03-23T01:24:03.331Z,18.97
2019-03-23T01:26:29.347Z,19.70
2019-03-23T01:28:55.406Z,17.70
2019-03-23T01:31:21.407Z,16.73
2019-03-23T01:33:47.438Z,13.50
2019-03-23T01:36:13.454Z,19.43
2019-03-23T01:38:39.487Z,19.67
2019-03-23T01:41:05.503Z,14.47
2019-03-23T01:43:31.552Z,28.83
2019-03-23T01:45:57.700Z,17.33
2019-03-23T01:48:23.730Z,19.67
2019-03-23T01:50:49.745Z,17.37
2019-03-23T01:53:15.775Z,24.40
2019-03-23T01:55:41.797Z,19.17
2019-03-23T01:58:07.829Z,17.83
2019-03-23T02:00:33.849Z,18.90
2019-03-23T02:02:59.879Z,18.70
2019-03-23T02:05:25.886Z,19.20
2019-03-23T02:07:51.917Z,14.27
2019-03-23T02:10:17.938Z,22.03
2019-03-23T02:12:43.967Z,22.40
2019-03-23T02:15:11.086Z,15.63
2019-03-23T02:17:37.197Z,21.37
2019-03-23T02:20:05.957Z,21.40
2019-03-23T02:22:31.968Z,21.23
2019-03-23T02:24:57.996Z,26.87
2019-03-23T02:27:24.023Z,17.10
2019-03-23T02:29:50.060Z,15.63
2019-03-23T02:32:16.089Z,22.30
2019-03-23T02:34:42.124Z,20.27
2019-03-23T02:37:08.145Z,20.40
2019-03-23T02:39:34.171Z,22.30
2019-03-23T02:42:00.190Z,27.00
2019-03-23T02:44:26.231Z,24.77
2019-03-23T02:46:52.235Z,20.33
2019-03-23T02:49:18.282Z,23.00
2019-03-23T02:51:44.285Z,18.63
2019-03-23T02:54:10.319Z,20.07
2019-03-23T02:56:36.334Z,23.30
2019-03-23T02:59:02.373Z,21.57
2019-03-23T03:01:28.392Z,24.30
2019-03-23T03:03:54.449Z,27.50
2019-03-23T03:06:20.463Z,27.93
2019-03-23T03:08:46.489Z,20.37
2019-03-23T03:11:12.568Z,21.30
2019-03-23T03:13:38.663Z,27.33
2019-03-23T03:16:04.673Z,28.40
2019-03-23T03:18:30.695Z,19.93
2019-03-23T03:20:56.708Z,18.00
2019-03-23T03:23:22.740Z,16.93
2019-03-23T03:25:48.764Z,23.90
2019-03-23T03:28:15.020Z,23.93
2019-03-23T03:30:41.034Z,18.97
2019-03-23T03:33:07.358Z,20.30
2019-03-23T03:35:33.480Z,23.17
2019-03-23T03:37:59.491Z,24.17
2019-03-23T03:40:25.526Z,27.50
2019-03-23T03:42:51.544Z,25.03
2019-03-23T03:45:25.996Z,23.30
2019-03-23T03:47:52.112Z,18.50
2019-03-23T03:50:18.244Z,25.27
2019-03-23T03:52:44.255Z,29.47
2019-03-23T03:55:10.292Z,24.93
2019-03-23T03:57:36.319Z,19.80
2019-03-23T04:00:04.718Z,20.47
2019-03-23T04:02:30.744Z,25.83
2019-03-23T04:04:56.776Z,25.53
2019-03-23T04:07:22.802Z,21.80
2019-03-23T04:09:48.831Z,22.70
2019-03-23T04:12:14.841Z,19.63
2019-03-23T04:14:40.874Z,21.77
2019-03-23T04:17:06.893Z,26.30
2019-03-23T04:19:32.912Z,23.77
2019-03-23T04:21:58.936Z,27.33
2019-03-23T04:24:25.008Z,27.37
2019-03-23T04:26:51.080Z,24.97
2019-03-23T04:29:17.112Z,28.90
2019-03-23T04:31:43.127Z,27.50
2019-03-23T04:34:09.148Z,28.80
2019-03-23T04:36:35.164Z,24.27
2019-03-23T04:39:01.463Z,33.87
2019-03-23T04:41:27.476Z,26.80
2019-03-23T04:43:53.505Z,30.87
2019-03-23T04:46:19.515Z,37.73
2019-03-23T04:48:45.552Z,32.07
2019-03-23T04:51:11.567Z,28.00
2019-03-23T04:53:37.583Z,31.57
2019-03-23T04:56:03.616Z,29.03
2019-03-23T04:58:29.632Z,28.57
2019-03-23T05:00:55.679Z,23.97
2019-03-23T05:03:21.686Z,23.63
2019-03-23T05:05:47.720Z,30.70
2019-03-23T05:08:13.731Z,34.73
2019-03-23T05:10:39.803Z,32.77
2019-03-23T05:13:05.819Z,31.60
2019-03-23T05:15:31.859Z,27.47
2019-03-23T05:17:57.891Z,29.47
2019-03-23T05:20:30.818Z,32.10
2019-03-23T05:22:57.234Z,33.53
2019-03-23T05:25:28.095Z,31.70
2019-03-23T05:27:54.507Z,26.03
2019-03-23T05:30:20.539Z,25.17
2019-03-23T05:32:46.556Z,27.57
2019-03-23T05:35:12.604Z,26.90
2019-03-23T05:37:38.622Z,27.80
2019-03-23T05:40:05.469Z,30.80
2019-03-23T05:42:31.481Z,27.83
2019-03-23T05:44:57.514Z,24.67
2019-03-23T05:47:23.523Z,31.97
2019-03-23T05:49:49.592Z,26.53
2019-03-23T05:52:15.703Z,26.97
2019-03-23T05:54:41.739Z,25.70
2019-03-23T05:57:07.752Z,23.93
2019-03-23T05:59:33.785Z,28.07
2019-03-23T06:01:59.799Z,25.57
2019-03-23T06:04:25.891Z,24.83
2019-03-23T06:06:51.907Z,29.63
2019-03-23T06:09:17.939Z,31.37
2019-03-23T06:11:43.951Z,34.27
2019-03-23T06:14:10.005Z,28.93
2019-03-23T06:16:36.027Z,30.10
2019-03-23T06:19:02.035Z,36.57
2019-03-23T06:21:28.077Z,30.30
2019-03-23T06:23:54.087Z,33.93
2019-03-23T06:26:20.435Z,29.30
2019-03-23T06:28:46.450Z,28.03
2019-03-23T06:31:12.482Z,33.97
2019-03-23T06:33:38.492Z,30.03
2019-03-23T06:36:04.521Z,32.10
2019-03-23T06:38:30.544Z,34.13
2019-03-23T06:40:56.574Z,32.07
2019-03-23T06:43:22.585Z,41.97
2019-03-23T06:45:48.616Z,32.93
2019-03-23T06:48:14.645Z,30.43
2019-03-23T06:50:40.675Z,34.93
2019-03-23T06:53:06.684Z,27.97
2019-03-23T06:55:32.711Z,40.23
2019-03-23T06:57:58.728Z,22.37
2019-03-23T07:00:24.795Z,35.50
2019-03-23T07:02:50.811Z,34.20
2019-03-23T07:05:16.956Z,31.40
2019-03-23T07:07:43.022Z,32.90
2019-03-23T07:10:11.007Z,32.53
2019-03-23T07:12:37.019Z,38.47
2019-03-23T07:15:06.259Z,33.87
2019-03-23T07:17:52.153Z,32.93
2019-03-23T07:20:18.189Z,36.50
2019-03-23T07:22:44.203Z,39.03
2019-03-23T07:25:10.751Z,40.47
2019-03-23T07:27:36.859Z,40.80
2019-03-23T07:30:06.105Z,37.37
2019-03-23T07:32:32.140Z,37.83
2019-03-23T07:34:58.180Z,38.90
2019-03-23T07:37:24.200Z,42.27
2019-03-23T07:39:50.336Z,36.43
2019-03-23T07:42:16.354Z,43.57
2019-03-23T07:44:42.383Z,40.33
2019-03-23T07:47:08.483Z,35.37
2019-03-23T07:49:34.529Z,44.23
2019-03-23T07:52:02.004Z,41.53
2019-03-23T07:54:28.026Z,42.00
2019-03-23T07:56:54.059Z,36.93
2019-03-23T07:59:20.075Z,51.03
2019-03-23T08:01:46.117Z,43.57
2019-03-23T08:04:12.129Z,38.87
2019-03-23T08:06:38.166Z,41.27
2019-03-23T08:09:04.684Z,41.30
2019-03-23T08:11:30.756Z,46.13
2019-03-23T08:13:56.772Z,35.07
2019-03-23T08:16:22.807Z,34.23
2019-03-23T08:18:48.820Z,40.93
2019-03-23T08:21:14.987Z,39.03
2019-03-23T08:23:41.133Z,39.50
2019-03-23T08:26:07.168Z,45.50
2019-03-23T08:28:33.184Z,45.00
2019-03-23T08:30:59.227Z,44.17
2019-03-23T08:33:25.239Z,43.77
2019-03-23T08:35:51.280Z,40.73
2019-03-23T08:38:17.283Z,46.47
2019-03-23T08:41:03.201Z,41.27
2019-03-23T08:43:29.522Z,46.83
2019-03-23T08:45:55.611Z,47.90
2019-03-23T08:48:21.652Z,40.23
2019-03-23T08:50:47.692Z,53.07
2019-03-23T08:53:13.794Z,48.90
2019-03-23T08:55:41.279Z,43.93
2019-03-23T08:58:07.299Z,49.50
2019-03-23T09:00:33.328Z,42.20
2019-03-23T09:02:59.340Z,49.77
2019-03-23T09:05:25.379Z,43.80
2019-03-23T09:07:52.636Z,48.60
2019-03-23T09:10:18.831Z,47.93
2019-03-23T09:12:44.857Z,47.90
2019-03-23T09:15:11.096Z,44.27
2019-03-23T09:17:37.119Z,48.40
2019-03-23T09:20:06.241Z,50.57
2019-03-23T09:22:32.279Z,51.07
2019-03-23T09:24:58.288Z,53.23
2019-03-23T09:27:24.316Z,50.83
2019-03-23T09:29:50.336Z,47.23
2019-03-23T09:32:16.395Z,46.73
2019-03-23T09:34:42.403Z,51.07
2019-03-23T09:37:08.441Z,46.67
2019-03-23T09:39:34.452Z,44.70
2019-03-23T09:42:01.852Z,49.33
2019-03-23T09:44:27.859Z,58.43
2019-03-23T09:46:53.892Z,44.93
2019-03-23T09:49:22.018Z,52.97
2019-03-23T09:51:47.851Z,53.30
2019-03-23T09:54:13.871Z,58.87
2019-03-23T09:56:39.904Z,54.57
2019-03-23T09:59:05.915Z,52.70
2019-03-23T10:01:31.948Z,57.40
2019-03-23T10:03:58.031Z,49.37
2019-03-23T10:06:24.063Z,50.83
2019-03-23T10:08:50.083Z,52.40
2019-03-23T10:11:16.112Z,47.70
2019-03-23T10:13:42.127Z,51.50
2019-03-23T10:16:08.160Z,48.70
2019-03-23T10:18:54.051Z,47.93
2019-03-23T10:21:20.100Z,51.67
2019-03-23T10:23:46.120Z,52.57
2019-03-23T10:26:12.148Z,53.83
2019-03-23T10:28:38.190Z,55.07
2019-03-23T10:31:04.218Z,56.27
2019-03-23T10:33:30.223Z,60.80
2019-03-23T10:35:56.272Z,52.73
2019-03-23T10:38:22.322Z,51.13
2019-03-23T10:40:48.452Z,55.37
2019-03-23T10:43:14.463Z,53.33
2019-03-23T10:45:44.355Z,52.67
2019-03-23T10:48:08.420Z,53.47
2019-03-23T10:50:34.429Z,55.47
2019-03-23T10:53:01.884Z,51.60
2019-03-23T10:55:27.893Z,47.60
2019-03-23T10:57:53.928Z,58.97
2019-03-23T11:00:19.943Z,52.27
2019-03-23T11:02:45.976Z,49.07
2019-03-23T11:05:12.093Z,56.80
2019-03-23T11:07:38.123Z,51.60
2019-03-23T11:10:06.164Z,54.67
2019-03-23T11:12:32.216Z,50.90
2019-03-23T11:14:58.229Z,50.27
2019-03-23T11:17:24.259Z,51.47
2019-03-23T11:19:50.289Z,53.63
2019-03-23T11:22:16.323Z,54.47
2019-03-23T11:24:42.349Z,53.13
2019-03-23T11:27:08.382Z,51.53
2019-03-23T11:29:34.396Z,56.90
2019-03-23T11:32:01.787Z,52.20
2019-03-23T11:34:27.828Z,42.50
2019-03-23T11:36:53.859Z,40.23
2019-03-23T11:39:19.876Z,52.27
2019-03-23T11:41:45.912Z,52.40
2019-03-23T11:44:11.932Z,48.20
2019-03-23T11:46:37.967Z,46.05
2019-03-23T11:49:03.988Z,56.33
2019-03-23T11:51:30.038Z,49.13
2019-03-23T11:53:57.159Z,44.57
2019-03-23T11:56:23.191Z,47.93
2019-03-23T11:58:49.219Z,49.77
2019-03-23T12:01:15.349Z,43.00
2019-03-23T12:03:41.367Z,44.83
2019-03-23T12:06:07.395Z,42.70
2019-03-23T12:08:33.415Z,52.20
2019-03-23T12:11:03.190Z,43.30
2019-03-23T12:13:27.391Z,37.73
2019-03-23T12:15:53.514Z,43.07
2019-03-23T12:18:19.545Z,42.93
2019-03-23T12:20:45.555Z,40.27
2019-03-23T12:23:11.591Z,41.80
2019-03-23T12:25:37.607Z,43.53
2019-03-23T12:28:03.645Z,39.10
2019-03-23T12:30:29.661Z,40.33
2019-03-23T12:32:55.747Z,43.03
2019-03-23T12:35:22.799Z,45.83
2019-03-23T12:37:48.830Z,40.90
2019-03-23T12:40:14.943Z,43.77
2019-03-23T12:42:40.975Z,43.23
2019-03-23T12:45:07.797Z,45.20
2019-03-23T12:47:34.814Z,45.30
2019-03-23T12:50:01.910Z,41.97
2019-03-23T12:52:27.937Z,42.50
2019-03-23T12:54:54.046Z,40.70
2019-03-23T12:57:20.075Z,39.80
2019-03-23T12:59:46.095Z,46.37
2019-03-23T13:02:12.155Z,41.07
2019-03-23T13:04:38.243Z,43.20
2019-03-23T13:07:04.268Z,34.53
2019-03-23T13:09:30.284Z,41.23
2019-03-23T13:11:56.319Z,40.03
2019-03-23T13:14:22.335Z,39.53
2019-03-23T13:16:48.392Z,38.33
2019-03-23T13:19:14.403Z,41.47
2019-03-23T13:21:40.435Z,41.43
2019-03-23T13:24:06.503Z,40.00
2019-03-23T13:26:32.683Z,38.80
2019-03-23T13:28:59.295Z,38.10
2019-03-23T13:31:25.321Z,42.00
2019-03-23T13:33:51.364Z,43.73
2019-03-23T13:36:17.860Z,38.93
2019-03-23T13:38:43.900Z,38.67
2019-03-23T13:41:12.621Z,44.03
2019-03-23T13:43:38.652Z,39.43
2019-03-23T13:46:04.667Z,44.03
2019-03-23T13:48:30.703Z,33.70
2019-03-23T13:50:56.728Z,36.77
2019-03-23T13:53:22.763Z,36.13
2019-03-23T13:55:48.831Z,29.80
2019-03-23T13:58:14.859Z,38.73
2019-03-23T14:00:41.224Z,32.77
2019-03-23T14:03:07.376Z,32.93
2019-03-23T14:05:33.479Z,30.43
2019-03-23T14:07:59.511Z,29.60
2019-03-23T14:10:25.551Z,27.27
2019-03-23T14:12:51.665Z,31.90
2019-03-23T14:15:17.675Z,29.27
2019-03-23T14:17:43.711Z,33.63
2019-03-23T14:20:09.723Z,33.17
2019-03-23T14:22:35.761Z,32.37
2019-03-23T14:25:04.882Z,29.70
2019-03-23T14:27:30.907Z,29.33
2019-03-23T14:29:56.924Z,28.53
2019-03-23T14:32:22.998Z,30.00
2019-03-23T14:34:49.035Z,29.17
2019-03-23T14:37:15.052Z,33.47
2019-03-23T14:39:41.087Z,32.37
2019-03-23T14:42:07.099Z,33.10
2019-03-23T14:44:33.138Z,25.97
2019-03-23T14:46:59.157Z,26.13
2019-03-23T14:49:25.208Z,30.27
2019-03-23T14:51:51.295Z,30.43
2019-03-23T14:54:17.323Z,30.03
2019-03-23T14:56:43.342Z,31.47
2019-03-23T14:59:09.372Z,33.87
2019-03-23T15:01:35.392Z,29.10
2019-03-23T15:04:01.432Z,36.27
2019-03-23T15:06:27.447Z,34.70
2019-03-23T15:08:53.475Z,29.30
2019-03-23T15:11:19.492Z,28.70
2019-03-23T15:13:47.505Z,32.27
2019-03-23T15:16:13.443Z,34.70
2019-03-23T15:18:39.507Z,31.47
2019-03-23T15:21:05.519Z,34.33
2019-03-23T15:23:31.549Z,26.70
2019-03-23T15:25:57.567Z,28.33
2019-03-23T15:28:23.595Z,31.10
2019-03-23T15:30:50.874Z,32.77
2019-03-23T15:33:17.148Z,31.10
2019-03-23T15:35:43.252Z,33.43
2019-03-23T15:38:09.267Z,29.00
2019-03-23T15:40:35.279Z,32.00
2019-03-23T15:43:01.293Z,37.47
2019-03-23T15:45:27.344Z,29.43
2019-03-23T15:47:53.368Z,29.63
2019-03-23T15:50:19.428Z,33.97
2019-03-23T15:52:45.448Z,34.63
2019-03-23T15:55:11.481Z,29.83
2019-03-23T15:57:37.500Z,31.63
2019-03-23T16:00:08.444Z,30.60
2019-03-23T16:02:34.524Z,35.07
2019-03-23T16:05:01.999Z,32.60
2019-03-23T16:07:29.797Z,32.63
2019-03-23T16:09:55.955Z,31.17
2019-03-23T16:12:22.067Z,31.53
2019-03-23T16:14:48.100Z,28.80
2019-03-23T16:17:14.140Z,32.10
2019-03-23T16:19:40.176Z,32.53
2019-03-23T16:22:06.199Z,33.78
2019-03-23T16:24:32.237Z,29.57
2019-03-23T16:26:58.253Z,29.27
2019-03-23T16:29:24.284Z,32.07
2019-03-23T16:31:50.300Z,32.70
2019-03-23T16:34:16.331Z,34.93
2019-03-23T16:36:42.457Z,38.03
2019-03-23T16:39:08.511Z,36.47
2019-03-23T16:41:34.538Z,34.57
2019-03-23T16:44:02.228Z,34.80
2019-03-23T16:46:28.260Z,37.67
2019-03-23T16:48:54.288Z,36.43
2019-03-23T16:51:20.302Z,39.57
2019-03-23T16:53:46.387Z,41.40
2019-03-23T16:56:12.415Z,44.37
2019-03-23T16:58:38.455Z,50.20
2019-03-23T17:01:04.651Z,53.13
2019-03-23T17:03:30.674Z,48.93
2019-03-23T17:05:56.701Z,43.93
2019-03-23T17:08:22.711Z,45.93
2019-03-23T17:10:48.994Z,47.83
2019-03-23T17:13:15.051Z,48.63
2019-03-23T17:15:41.085Z,51.03
2019-03-23T17:18:07.093Z,47.60
2019-03-23T17:20:33.449Z,50.10
2019-03-23T17:22:59.476Z,50.10
2019-03-23T17:25:25.507Z,57.80
2019-03-23T17:27:51.523Z,53.97
2019-03-23T17:30:17.646Z,54.80
2019-03-23T17:32:43.673Z,60.47
2019-03-23T17:35:18.575Z,52.10
2019-03-23T17:37:44.079Z,54.73
2019-03-23T17:40:30.095Z,60.80
2019-03-23T17:43:05.531Z,60.43
2019-03-23T17:45:24.061Z,53.60
2019-03-23T17:47:50.171Z,58.20
2019-03-23T17:50:16.464Z,55.80
2019-03-23T17:52:42.484Z,57.23
2019-03-23T17:55:08.824Z,58.80
2019-03-23T17:57:34.839Z,55.27
2019-03-23T18:00:03.511Z,53.17
2019-03-23T18:02:29.544Z,64.50
2019-03-23T18:04:55.623Z,61.47
2019-03-23T18:07:21.636Z,65.33
2019-03-23T18:09:47.699Z,64.00
2019-03-23T18:12:13.764Z,66.90
2019-03-23T18:14:39.799Z,62.20
2019-03-23T18:17:05.823Z,63.97
2019-03-23T18:19:31.864Z,66.05
2019-03-23T18:21:57.986Z,60.60
2019-03-23T18:24:24.076Z,63.77
2019-03-23T18:26:50.275Z,68.17
2019-03-23T18:29:16.288Z,67.13
2019-03-23T18:31:42.451Z,73.43
2019-03-23T18:34:08.960Z,78.53
2019-03-23T18:36:35.055Z,73.03
2019-03-23T18:39:04.084Z,73.53
2019-03-23T18:41:30.223Z,77.67
2019-03-23T18:43:56.247Z,81.90
2019-03-23T18:46:24.470Z,76.47
2019-03-23T18:48:50.209Z,81.30
2019-03-23T18:51:16.243Z,84.13
2019-03-23T18:53:42.271Z,82.20
2019-03-23T18:56:08.311Z,83.97
2019-03-23T18:58:34.343Z,76.00
2019-03-23T19:01:00.383Z,89.20
2019-03-23T19:03:26.459Z,85.87
2019-03-23T19:05:52.508Z,86.93
2019-03-23T19:08:18.528Z,82.60
2019-03-23T19:10:44.579Z,90.27
2019-03-23T19:13:11.296Z,90.80
2019-03-23T19:15:37.463Z,91.47
2019-03-23T19:18:03.679Z,84.57
2019-03-23T19:20:29.716Z,89.00
2019-03-23T19:22:55.731Z,90.10
2019-03-23T19:25:22.827Z,91.43
2019-03-23T19:27:49.316Z,94.97
2019-03-23T19:30:16.511Z,104.00
2019-03-23T19:32:42.523Z,96.20
2019-03-23T19:35:08.675Z,99.67
2019-03-23T19:37:34.709Z,92.27
2019-03-23T19:40:00.819Z,100.20
2019-03-23T19:42:26.883Z,94.10
2019-03-23T19:44:52.899Z,93.73
2019-03-23T19:47:18.935Z,102.60
2019-03-23T19:49:44.955Z,101.83
2019-03-23T19:54:46.275Z,94.77
2019-03-23T19:57:12.419Z,99.30
2019-03-23T19:59:38.424Z,102.73
2019-03-23T20:02:04.502Z,101.73
2019-03-23T20:04:30.513Z,100.00
2019-03-23T20:06:56.555Z,96.10
2019-03-23T20:09:22.575Z,94.90
2019-03-23T20:11:48.617Z,102.77
2019-03-23T20:14:14.631Z,98.60
2019-03-23T20:16:40.762Z,108.70
2019-03-23T20:19:06.848Z,101.53
2019-03-23T20:21:32.888Z,102.60
2019-03-23T20:23:58.903Z,95.87
2019-03-23T20:26:25.037Z,96.93
2019-03-23T20:28:51.056Z,99.53
2019-03-23T20:31:17.120Z,101.53
2019-03-23T20:33:43.133Z,100.90
2019-03-23T20:36:09.279Z,101.77
2019-03-23T20:38:35.318Z,108.10
2019-03-23T20:41:01.341Z,103.53
2019-03-23T20:43:27.380Z,102.67
2019-03-23T20:45:53.533Z,115.70
2019-03-23T20:48:19.925Z,104.30
2019-03-23T20:50:46.187Z,109.37
2019-03-23T20:53:14.312Z,105.37
2019-03-23T20:55:40.352Z,109.00
2019-03-23T20:58:06.388Z,104.50
2019-03-23T21:00:32.817Z,109.37
2019-03-23T21:02:59.731Z,101.73
2019-03-23T21:05:33.951Z,112.60
2019-03-23T21:07:53.767Z,108.97
2019-03-23T21:10:19.783Z,115.97
2019-03-23T21:12:45.826Z,106.10
2019-03-23T21:15:11.840Z,109.70
2019-03-23T21:17:50.417Z,105.70
2019-03-23T21:20:06.299Z,110.70
2019-03-23T21:22:32.635Z,110.27
2019-03-23T21:24:58.651Z,111.93
2019-03-23T21:27:24.683Z,124.83
2019-03-23T21:29:50.701Z,113.83
2019-03-23T21:32:16.751Z,119.67
2019-03-23T21:34:42.759Z,110.37
2019-03-23T21:37:08.795Z,121.20
2019-03-23T21:39:34.824Z,121.73
2019-03-23T21:42:01.972Z,117.27
2019-03-23T21:44:31.151Z,117.00
2019-03-23T21:46:56.028Z,120.70
2019-03-23T21:49:22.039Z,123.77
2019-03-23T21:51:48.080Z,117.47
2019-03-23T21:54:14.100Z,124.57
2019-03-23T21:56:40.139Z,122.20
2019-03-23T21:59:06.168Z,126.00
2019-03-23T22:01:32.196Z,122.10
2019-03-23T22:03:58.211Z,131.67
2019-03-23T22:06:24.284Z,124.20
2019-03-23T22:08:50.319Z,127.43
2019-03-23T22:11:16.367Z,125.60
2019-03-23T22:13:42.399Z,128.07
2019-03-23T22:16:08.474Z,130.23
2019-03-23T22:18:34.521Z,127.20
2019-03-23T22:21:00.615Z,130.40
2019-03-23T22:23:26.891Z,132.20
2019-03-23T22:25:52.912Z,132.57
2019-03-23T22:28:19.011Z,131.57
2019-03-23T22:30:45.035Z,133.97
2019-03-23T22:33:11.067Z,144.80
2019-03-23T22:35:37.085Z,141.80
2019-03-23T22:38:03.130Z,143.23
2019-03-23T22:40:29.223Z,139.47
2019-03-23T22:42:55.259Z,130.43
2019-03-23T22:45:21.279Z,135.03
2019-03-23T22:47:47.316Z,147.60
2019-03-23T22:50:13.532Z,138.77
2019-03-23T22:52:39.563Z,131.43
2019-03-23T22:55:06.697Z,141.87
2019-03-23T22:57:32.796Z,147.53
2019-03-23T22:59:58.919Z,140.07
2019-03-23T23:02:24.935Z,145.63
2019-03-23T23:04:50.968Z,144.97
2019-03-23T23:07:16.984Z,150.77
2019-03-23T23:09:43.021Z,142.10
2019-03-23T23:12:09.141Z,136.93
2019-03-23T23:14:35.180Z,150.40
2019-03-23T23:17:01.204Z,153.67
2019-03-23T23:19:27.274Z,146.17
2019-03-23T23:21:53.290Z,157.53
2019-03-23T23:24:19.319Z,150.50
2019-03-23T23:26:45.351Z,148.53
2019-03-23T23:29:11.388Z,153.13
2019-03-23T23:31:37.404Z,142.87
2019-03-23T23:34:03.536Z,148.50
2019-03-23T23:36:29.559Z,151.47
2019-03-23T23:38:55.596Z,156.60
2019-03-23T23:41:21.612Z,155.07
2019-03-23T23:43:47.752Z,148.50
2019-03-23T23:46:13.775Z,152.90
2019-03-23T23:48:43.117Z,155.20
2019-03-23T23:51:07.723Z,152.87
2019-03-23T23:53:33.764Z,157.17
2019-03-23T23:55:59.788Z,146.97
2019-03-23T23:58:25.841Z,146.00
